createdAt,value
2022-10-05T00:01:23.670Z,99.90
2022-10-05T00:03:52.854Z,99.90
2022-10-05T00:06:22.375Z,99.90
2022-10-05T00:08:50.248Z,99.90
2022-10-05T00:11:18.655Z,99.90
2022-10-05T00:13:47.176Z,99.90
2022-10-05T00:16:19.105Z,99.90
2022-10-05T00:18:49.993Z,99.90
2022-10-05T00:21:21.471Z,99.90
2022-10-05T00:23:52.895Z,99.90
2022-10-05T00:26:22.822Z,99.90
2022-10-05T00:28:51.508Z,99.90
2022-10-05T00:31:22.025Z,99.90
2022-10-05T00:33:50.299Z,99.90
2022-10-05T00:36:18.938Z,99.90
2022-10-05T00:38:46.931Z,99.90
2022-10-05T00:41:23.839Z,99.90
2022-10-05T00:44:27.255Z,99.90
2022-10-05T00:46:58.893Z,99.90
2022-10-05T00:49:47.194Z,99.90
2022-10-05T00:52:24.341Z,99.90
2022-10-05T00:55:00.958Z,99.90
2022-10-05T00:57:44.398Z,99.90
2022-10-05T01:00:17.205Z,99.90
2022-10-05T01:02:55.489Z,99.90
2022-10-05T01:05:34.940Z,99.90
2022-10-05T01:08:12.274Z,99.90
2022-10-05T01:10:46.276Z,99.90
2022-10-05T01:13:25.485Z,99.90
2022-10-05T01:16:00.267Z,99.90
2022-10-05T01:18:39.324Z,99.90
2022-10-05T01:21:15.159Z,99.90
2022-10-05T01:24:29.578Z,99.90
2022-10-05T01:27:37.066Z,99.90
2022-10-05T01:30:12.035Z,99.90
2022-10-05T01:32:48.383Z,99.90
2022-10-05T01:35:31.482Z,99.90
2022-10-05T01:38:12.566Z,99.90
2022-10-05T01:40:50.185Z,99.90
2022-10-05T01:43:24.943Z,99.90
2022-10-05T01:46:03.058Z,99.90
2022-10-05T01:48:44.071Z,99.90
2022-10-05T01:51:23.325Z,99.90
2022-10-05T01:54:04.446Z,99.90
2022-10-05T01:56:40.878Z,99.90
2022-10-05T01:59:21.178Z,99.90
2022-10-05T02:01:58.623Z,99.90
2022-10-05T02:05:00.976Z,99.90
2022-10-05T02:07:25.284Z,99.90
2022-10-05T02:09:57.631Z,99.90
2022-10-05T02:12:28.786Z,99.90
2022-10-05T02:14:59.402Z,99.90
2022-10-05T02:17:37.486Z,99.90
2022-10-05T02:20:11.014Z,99.90
2022-10-05T02:22:43.914Z,99.90
2022-10-05T02:25:16.806Z,99.90
2022-10-05T02:27:50.227Z,99.90
2022-10-05T02:30:22.074Z,99.90
2022-10-05T02:32:55.705Z,99.90
2022-10-05T02:35:24.176Z,99.90
2022-10-05T02:38:03.467Z,99.90
2022-10-05T02:40:44.445Z,99.90
2022-10-05T02:43:22.081Z,99.90
2022-10-05T02:45:58.339Z,99.90
2022-10-05T02:48:39.220Z,99.90
2022-10-05T02:51:16.685Z,99.90
2022-10-05T02:53:53.089Z,99.90
2022-10-05T02:56:28.169Z,99.90
2022-10-05T02:59:05.380Z,99.90
2022-10-05T03:01:37.704Z,99.90
2022-10-05T03:04:22.011Z,99.90
2022-10-05T03:06:59.794Z,99.90
2022-10-05T03:09:35.049Z,99.90
2022-10-05T03:12:13.515Z,99.90
2022-10-05T03:14:52.182Z,99.90
2022-10-05T03:17:23.643Z,99.90
2022-10-05T03:20:06.302Z,99.90
2022-10-05T03:22:47.876Z,99.90
2022-10-05T03:25:42.513Z,99.90
2022-10-05T03:28:18.506Z,99.90
2022-10-05T03:30:53.611Z,99.90
2022-10-05T03:33:32.138Z,99.90
2022-10-05T03:36:08.670Z,99.90
2022-10-05T03:38:44.912Z,99.90
2022-10-05T03:41:19.031Z,99.90
2022-10-05T03:44:15.826Z,99.90
2022-10-05T03:46:55.064Z,99.90
2022-10-05T03:49:33.076Z,99.90
2022-10-05T03:52:08.942Z,99.90
2022-10-05T03:54:41.777Z,99.90
2022-10-05T03:57:14.379Z,99.90
2022-10-05T03:59:50.436Z,99.90
2022-10-05T04:02:25.761Z,99.90
2022-10-05T04:04:59.589Z,99.90
2022-10-05T04:07:38.057Z,99.90
2022-10-05T04:10:14.006Z,99.90
2022-10-05T04:12:45.175Z,99.90
2022-10-05T04:15:22.863Z,99.90
2022-10-05T04:17:56.541Z,99.90
2022-10-05T04:20:30.279Z,99.90
2022-10-05T04:23:12.464Z,99.90
2022-10-05T04:25:45.349Z,99.90
2022-10-05T04:28:19.409Z,99.90
2022-10-05T04:30:51.547Z,99.90
2022-10-05T04:33:19.621Z,99.90
2022-10-05T04:36:11.069Z,99.90
2022-10-05T04:38:49.500Z,99.90
2022-10-05T04:41:45.737Z,99.90
2022-10-05T04:44:25.450Z,99.90
2022-10-05T04:47:09.313Z,99.90
2022-10-05T04:49:56.012Z,99.90
2022-10-05T04:52:28.797Z,99.90
2022-10-05T04:55:10.639Z,99.90
2022-10-05T04:57:42.728Z,99.90
2022-10-05T05:00:21.042Z,99.90
2022-10-05T05:03:14.899Z,99.90
2022-10-05T05:06:15.520Z,99.90
2022-10-05T05:08:59.906Z,99.90
2022-10-05T05:11:39.174Z,99.90
2022-10-05T05:14:28.927Z,99.90
2022-10-05T05:17:13.032Z,99.90
2022-10-05T05:19:52.234Z,99.90
2022-10-05T05:22:28.210Z,99.90
2022-10-05T05:25:20.186Z,99.90
2022-10-05T05:27:54.900Z,99.90
2022-10-05T05:30:25.388Z,99.90
2022-10-05T05:33:11.148Z,99.90
2022-10-05T05:36:09.151Z,99.90
2022-10-05T05:38:42.421Z,99.90
2022-10-05T05:41:12.955Z,99.90
2022-10-05T05:43:56.081Z,99.90
2022-10-05T05:46:51.236Z,99.90
2022-10-05T05:49:19.406Z,99.90
2022-10-05T05:51:55.378Z,99.90
2022-10-05T05:54:29.506Z,99.90
2022-10-05T05:57:08.984Z,99.90
2022-10-05T05:59:57.719Z,99.90
2022-10-05T06:02:32.737Z,99.90
2022-10-05T06:05:10.684Z,99.90
2022-10-05T06:07:39.589Z,99.90
2022-10-05T06:10:19.734Z,99.90
2022-10-05T06:12:50.558Z,99.90
2022-10-05T06:15:28.506Z,99.90
2022-10-05T06:18:00.602Z,99.90
2022-10-05T06:20:31.405Z,99.90
2022-10-05T06:23:04.507Z,99.90
2022-10-05T06:25:45.812Z,99.90
2022-10-05T06:28:15.995Z,99.90
2022-10-05T06:30:57.168Z,99.90
2022-10-05T06:33:41.498Z,99.90
2022-10-05T06:36:21.678Z,99.90
2022-10-05T06:39:32.431Z,99.90
2022-10-05T06:42:14.739Z,99.90
2022-10-05T06:44:50.459Z,99.90
2022-10-05T06:47:30.629Z,99.90
2022-10-05T06:50:10.391Z,99.90
2022-10-05T06:52:51.558Z,99.90
2022-10-05T06:55:27.751Z,99.90
2022-10-05T06:58:18.425Z,99.90
2022-10-05T07:00:53.311Z,99.90
2022-10-05T07:03:36.769Z,99.90
2022-10-05T07:06:12.091Z,99.90
2022-10-05T07:08:55.345Z,99.90
2022-10-05T07:11:42.254Z,99.90
2022-10-05T07:14:20.974Z,99.90
2022-10-05T07:17:07.403Z,99.90
2022-10-05T07:19:47.544Z,99.90
2022-10-05T07:22:34.478Z,99.90
2022-10-05T07:25:10.572Z,99.90
2022-10-05T07:27:49.537Z,99.90
2022-10-05T07:30:20.728Z,99.90
2022-10-05T07:33:00.127Z,99.90
2022-10-05T07:35:58.167Z,99.90
2022-10-05T07:38:33.149Z,99.90
2022-10-05T07:41:07.652Z,99.90
2022-10-05T07:44:01.492Z,99.90
2022-10-05T07:46:45.096Z,99.90
2022-10-05T07:49:23.166Z,99.90
2022-10-05T07:51:57.655Z,99.90
2022-10-05T07:54:34.164Z,99.90
2022-10-05T07:57:11.818Z,99.90
2022-10-05T07:59:45.696Z,99.90
2022-10-05T08:02:24.364Z,99.90
2022-10-05T08:04:58.677Z,99.90
2022-10-05T08:07:33.006Z,99.90
2022-10-05T08:10:14.733Z,99.90
2022-10-05T08:12:53.572Z,99.90
2022-10-05T08:15:24.837Z,99.90
2022-10-05T08:17:57.188Z,99.90
2022-10-05T08:20:40.855Z,99.90
2022-10-05T08:23:23.565Z,99.90
2022-10-05T08:26:16.278Z,99.90
2022-10-05T08:28:54.451Z,99.90
2022-10-05T08:31:26.872Z,99.90
2022-10-05T08:34:02.093Z,99.90
2022-10-05T08:36:54.098Z,99.90
2022-10-05T08:39:27.382Z,99.90
2022-10-05T08:42:31.735Z,99.90
2022-10-05T08:45:29.382Z,99.90
2022-10-05T08:48:27.200Z,99.90
2022-10-05T08:51:31.110Z,99.90
2022-10-05T08:54:34.806Z,99.90
2022-10-05T08:57:35.894Z,99.90
2022-10-05T09:00:12.024Z,99.90
2022-10-05T09:03:00.291Z,99.90
2022-10-05T09:05:46.313Z,99.90
2022-10-05T09:08:45.610Z,99.90
2022-10-05T09:11:22.074Z,99.90
2022-10-05T09:14:03.979Z,99.90
2022-10-05T09:16:51.649Z,99.90
2022-10-05T09:19:53.261Z,99.90
2022-10-05T09:22:38.180Z,99.90
2022-10-05T09:25:24.122Z,99.90
2022-10-05T09:28:00.687Z,99.90
2022-10-05T09:30:43.376Z,99.90
2022-10-05T09:33:42.050Z,99.90
2022-10-05T09:36:55.816Z,99.90
2022-10-05T09:39:44.240Z,99.90
2022-10-05T09:42:42.047Z,99.90
2022-10-05T09:45:44.330Z,99.90
2022-10-05T09:48:56.171Z,99.90
2022-10-05T09:52:03.261Z,99.90
2022-10-05T09:55:20.308Z,99.90
2022-10-05T09:58:33.810Z,99.90
2022-10-05T10:01:32.593Z,99.90
2022-10-05T10:04:21.592Z,99.90
2022-10-05T10:07:26.696Z,99.90
2022-10-05T10:10:30.978Z,99.90
2022-10-05T10:13:18.176Z,99.90
2022-10-05T10:16:13.906Z,99.90
2022-10-05T10:19:07.738Z,99.90
2022-10-05T10:21:56.044Z,99.90
2022-10-05T10:24:43.702Z,99.90
2022-10-05T10:27:24.443Z,99.90
2022-10-05T10:30:18.858Z,99.90
2022-10-05T10:33:41.027Z,99.90
2022-10-05T10:36:14.739Z,99.90
2022-10-05T10:38:54.888Z,99.90
2022-10-05T10:41:48.060Z,99.90
2022-10-05T10:44:43.813Z,99.90
2022-10-05T10:47:51.659Z,99.90
2022-10-05T10:50:52.443Z,99.90
2022-10-05T10:53:53.906Z,99.90
2022-10-05T10:56:40.589Z,99.90
2022-10-05T10:59:43.444Z,99.90
2022-10-05T11:02:37.252Z,99.90
2022-10-05T11:05:19.958Z,95.60
2022-10-05T11:08:39.601Z,93.80
2022-10-05T11:12:01.569Z,91.40
2022-10-05T11:14:58.670Z,89.10
2022-10-05T11:17:37.974Z,84.70
2022-10-05T11:20:24.445Z,81.60
2022-10-05T11:22:59.061Z,76.20
2022-10-05T11:26:02.654Z,73.40
2022-10-05T11:28:51.910Z,75.50
2022-10-05T11:31:41.366Z,71.60
2022-10-05T11:34:53.152Z,63.30
2022-10-05T11:37:51.083Z,63.30
2022-10-05T11:40:52.723Z,63.70
2022-10-05T11:43:44.006Z,61.40
2022-10-05T11:46:18.164Z,60.60
2022-10-05T11:49:18.814Z,59.60
2022-10-05T11:51:55.761Z,52.50
2022-10-05T11:55:06.030Z,50.80
2022-10-05T11:57:34.719Z,49.00
2022-10-05T12:00:12.853Z,48.50
2022-10-05T12:03:04.540Z,49.60
2022-10-05T12:05:43.412Z,47.50
2022-10-05T12:08:26.003Z,43.10
2022-10-05T12:11:08.640Z,44.50
2022-10-05T12:13:44.956Z,39.80
2022-10-05T12:16:19.349Z,40.20
2022-10-05T12:18:54.645Z,39.50
2022-10-05T12:21:34.300Z,38.80
2022-10-05T12:24:10.725Z,38.00
2022-10-05T12:26:44.648Z,36.60
2022-10-05T12:29:18.358Z,34.90
2022-10-05T12:31:55.629Z,33.70
2022-10-05T12:34:34.241Z,35.10
2022-10-05T12:37:12.546Z,36.20
2022-10-05T12:39:49.902Z,35.40
2022-10-05T12:42:27.059Z,34.30
2022-10-05T12:45:17.843Z,33.70
2022-10-05T12:48:05.485Z,36.60
2022-10-05T12:50:36.803Z,37.30
2022-10-05T12:53:34.655Z,34.10
2022-10-05T12:56:10.126Z,35.20
2022-10-05T12:58:49.853Z,33.50
2022-10-05T13:01:28.217Z,34.70
2022-10-05T13:04:10.270Z,33.60
2022-10-05T13:06:43.824Z,33.40
2022-10-05T13:09:22.529Z,33.50
2022-10-05T13:11:54.210Z,33.70
2022-10-05T13:14:40.604Z,30.40
2022-10-05T13:17:18.588Z,31.30
2022-10-05T13:19:48.926Z,31.70
2022-10-05T13:22:31.776Z,32.60
2022-10-05T13:25:17.343Z,31.60
2022-10-05T13:27:53.534Z,29.90
2022-10-05T13:30:25.219Z,30.10
2022-10-05T13:32:58.704Z,29.90
2022-10-05T13:35:43.878Z,31.50
2022-10-05T13:38:25.268Z,29.80
2022-10-05T13:41:03.387Z,28.90
2022-10-05T13:43:43.953Z,29.20
2022-10-05T13:46:24.723Z,29.00
2022-10-05T13:49:03.773Z,29.30
2022-10-05T13:51:41.027Z,29.50
2022-10-05T13:54:20.162Z,28.80
2022-10-05T13:56:55.499Z,29.60
2022-10-05T13:59:31.677Z,29.60
2022-10-05T14:02:03.303Z,29.20
2022-10-05T14:04:45.458Z,28.80
2022-10-05T14:07:25.543Z,29.70
2022-10-05T14:09:53.833Z,29.40
2022-10-05T14:12:24.759Z,29.40
2022-10-05T14:14:57.714Z,29.90
2022-10-05T14:17:44.815Z,28.50
2022-10-05T14:20:23.803Z,29.10
2022-10-05T14:22:58.319Z,29.30
2022-10-05T14:25:26.699Z,28.50
2022-10-05T14:28:01.610Z,29.70
2022-10-05T14:30:31.121Z,29.10
2022-10-05T14:33:15.419Z,29.50
2022-10-05T14:35:49.488Z,29.80
2022-10-05T14:38:21.156Z,29.50
2022-10-05T14:41:04.577Z,30.00
2022-10-05T14:43:35.374Z,28.90
2022-10-05T14:46:24.968Z,29.50
2022-10-05T14:49:15.879Z,30.30
2022-10-05T14:51:44.010Z,30.00
2022-10-05T14:54:25.647Z,30.00
2022-10-05T14:57:03.208Z,29.50
2022-10-05T14:59:47.885Z,29.30
2022-10-05T15:02:35.745Z,30.20
2022-10-05T15:05:07.538Z,30.00
2022-10-05T15:07:42.037Z,30.10
2022-10-05T15:10:29.656Z,29.90
2022-10-05T15:13:11.227Z,30.00
2022-10-05T15:15:48.314Z,29.30
2022-10-05T15:18:31.812Z,29.70
2022-10-05T15:21:13.073Z,30.60
2022-10-05T15:23:47.391Z,30.40
2022-10-05T15:26:36.291Z,31.40
2022-10-05T15:29:14.482Z,30.30
2022-10-05T15:31:53.698Z,30.80
2022-10-05T15:34:29.645Z,30.40
2022-10-05T15:37:03.289Z,31.10
2022-10-05T15:39:38.160Z,30.80
2022-10-05T15:42:11.078Z,31.40
2022-10-05T15:44:52.181Z,31.80
2022-10-05T15:47:26.819Z,31.20
2022-10-05T15:50:06.791Z,31.70
2022-10-05T15:52:42.621Z,32.10
2022-10-05T15:55:35.213Z,31.20
2022-10-05T15:58:32.085Z,31.10
2022-10-05T16:01:08.520Z,31.20
2022-10-05T16:03:47.784Z,31.40
2022-10-05T16:06:41.684Z,31.20
2022-10-05T16:09:24.565Z,31.70
2022-10-05T16:12:02.220Z,31.30
2022-10-05T16:14:39.871Z,31.60
2022-10-05T16:17:29.284Z,31.40
2022-10-05T16:20:14.636Z,32.00
2022-10-05T16:22:50.349Z,32.20
2022-10-05T16:25:23.405Z,31.70
2022-10-05T16:28:07.669Z,32.40
2022-10-05T16:30:48.316Z,33.10
2022-10-05T16:33:23.695Z,33.10
2022-10-05T16:36:02.973Z,33.70
2022-10-05T16:38:38.753Z,34.50
2022-10-05T16:41:15.841Z,34.60
2022-10-05T16:46:40.951Z,35.80
2022-10-05T16:49:20.546Z,37.00
2022-10-05T16:51:57.603Z,37.80
2022-10-05T16:54:29.042Z,38.50
2022-10-05T16:57:03.229Z,39.70
2022-10-05T17:00:04.724Z,40.50
2022-10-05T17:02:43.410Z,41.70
2022-10-05T17:05:30.605Z,42.50
2022-10-05T17:08:36.590Z,43.70
2022-10-05T17:11:16.992Z,44.70
2022-10-05T17:14:09.882Z,48.30
2022-10-05T17:16:54.470Z,53.30
2022-10-05T17:19:46.614Z,60.80
2022-10-05T17:22:25.139Z,69.30
2022-10-05T17:25:03.231Z,81.30
2022-10-05T17:27:35.271Z,97.30
2022-10-05T17:30:48.455Z,99.90
2022-10-05T17:33:23.162Z,99.90
2022-10-05T17:35:56.751Z,99.90
2022-10-05T17:38:46.124Z,99.90
2022-10-05T17:41:24.339Z,99.90
2022-10-05T17:44:20.167Z,99.90
2022-10-05T17:46:49.929Z,99.90
2022-10-05T17:49:46.462Z,99.90
2022-10-05T17:52:41.545Z,99.90
2022-10-05T17:55:28.172Z,99.90
2022-10-05T17:57:59.984Z,99.90
2022-10-05T18:00:50.186Z,99.90
2022-10-05T18:03:35.141Z,99.90
2022-10-05T18:06:31.773Z,99.90
2022-10-05T18:09:27.966Z,99.90
2022-10-05T18:12:27.223Z,99.90
2022-10-05T18:15:00.584Z,99.90
2022-10-05T18:17:41.349Z,99.90
2022-10-05T18:20:31.692Z,99.90
2022-10-05T18:23:35.382Z,99.90
2022-10-05T18:26:09.405Z,99.90
2022-10-05T18:28:51.134Z,99.90
2022-10-05T18:31:31.968Z,99.90
2022-10-05T18:34:21.761Z,99.90
2022-10-05T18:37:07.241Z,99.90
2022-10-05T18:39:59.073Z,99.90
2022-10-05T18:42:34.104Z,99.90
2022-10-05T18:45:17.485Z,99.90
2022-10-05T18:47:55.565Z,99.90
2022-10-05T18:50:30.143Z,99.90
2022-10-05T18:53:13.077Z,99.90
2022-10-05T18:55:46.219Z,99.90
2022-10-05T18:58:22.566Z,99.90
2022-10-05T19:01:18.903Z,99.90
2022-10-05T19:03:58.203Z,99.90
2022-10-05T19:06:30.969Z,99.90
2022-10-05T19:09:14.701Z,99.90
2022-10-05T19:11:52.322Z,99.90
2022-10-05T19:14:31.846Z,99.90
2022-10-05T19:17:12.218Z,99.90
2022-10-05T19:19:56.849Z,99.90
2022-10-05T19:22:42.170Z,99.90
2022-10-05T19:25:26.173Z,98.30
2022-10-05T19:28:03.437Z,94.70
2022-10-05T19:30:45.505Z,95.00
2022-10-05T19:33:30.433Z,94.30
2022-10-05T19:36:19.794Z,92.70
2022-10-05T19:38:59.951Z,92.40
2022-10-05T19:41:37.428Z,91.20
2022-10-05T19:44:31.357Z,91.50
2022-10-05T19:47:02.374Z,92.30
2022-10-05T19:49:48.401Z,94.20
2022-10-05T19:52:25.795Z,97.70
2022-10-05T19:55:12.301Z,99.90
2022-10-05T19:57:47.997Z,99.90
2022-10-05T20:00:25.140Z,99.90
2022-10-05T20:02:53.475Z,99.90
2022-10-05T20:05:22.577Z,99.90
2022-10-05T20:07:51.980Z,99.90
2022-10-05T20:10:30.762Z,99.90
2022-10-05T20:13:00.307Z,99.90
2022-10-05T20:15:47.699Z,99.90
2022-10-05T20:18:56.174Z,99.90
2022-10-05T20:21:48.857Z,99.90
2022-10-05T20:24:19.557Z,99.90
2022-10-05T20:27:16.108Z,99.90
2022-10-05T20:29:45.962Z,99.90
2022-10-05T20:32:15.978Z,99.90
2022-10-05T20:34:46.199Z,99.90
2022-10-05T20:37:15.909Z,99.90
2022-10-05T20:39:47.326Z,99.90
2022-10-05T20:42:15.658Z,99.90
2022-10-05T20:44:43.843Z,99.90
2022-10-05T20:47:12.462Z,99.90
2022-10-05T20:49:41.871Z,99.90
2022-10-05T20:52:11.827Z,99.90
2022-10-05T20:54:40.450Z,99.90
2022-10-05T20:57:10.432Z,99.90
2022-10-05T20:59:38.491Z,99.90
2022-10-05T21:02:06.594Z,99.90
2022-10-05T21:04:40.927Z,99.90
2022-10-05T21:07:10.392Z,99.90
2022-10-05T21:09:40.842Z,99.90
2022-10-05T21:12:10.509Z,99.90
2022-10-05T21:14:38.839Z,99.90
2022-10-05T21:17:07.239Z,99.90
2022-10-05T21:19:38.435Z,99.90
2022-10-05T21:22:08.339Z,99.90
2022-10-05T21:24:37.199Z,99.90
2022-10-05T21:27:05.876Z,99.90
2022-10-05T21:29:36.532Z,99.90
2022-10-05T21:32:08.386Z,99.90
2022-10-05T21:34:36.545Z,99.90
2022-10-05T21:37:04.870Z,99.90
2022-10-05T21:39:33.626Z,99.90
2022-10-05T21:42:01.677Z,99.90
2022-10-05T21:44:29.668Z,99.90
2022-10-05T21:46:59.087Z,99.90
2022-10-05T21:49:28.864Z,99.90
2022-10-05T21:51:57.064Z,99.90
2022-10-05T21:54:25.491Z,99.90
2022-10-05T21:56:57.005Z,99.90
2022-10-05T21:59:29.514Z,99.90
2022-10-05T22:01:59.003Z,99.90
2022-10-05T22:04:26.962Z,99.90
2022-10-05T22:06:55.677Z,99.90
2022-10-05T22:09:23.648Z,99.90
2022-10-05T22:11:51.930Z,99.90
2022-10-05T22:14:19.876Z,99.90
2022-10-05T22:16:47.934Z,99.90
2022-10-05T22:19:20.181Z,99.90
2022-10-05T22:21:48.330Z,99.90
2022-10-05T22:24:16.393Z,99.90
2022-10-05T22:26:47.982Z,99.90
2022-10-05T22:29:17.183Z,99.90
2022-10-05T22:31:48.420Z,99.90
2022-10-05T22:34:18.973Z,99.90
2022-10-05T22:36:47.501Z,99.90
2022-10-05T22:39:15.785Z,99.90
2022-10-05T22:41:44.058Z,99.90
2022-10-05T22:44:12.039Z,99.90
2022-10-05T22:46:40.067Z,99.90
2022-10-05T22:49:08.110Z,99.90
2022-10-05T22:51:37.596Z,99.90
2022-10-05T22:54:06.515Z,99.90
2022-10-05T22:56:34.601Z,99.90
2022-10-05T22:59:02.681Z,99.90
2022-10-05T23:01:30.707Z,99.90
2022-10-05T23:03:58.811Z,99.90
2022-10-05T23:06:27.614Z,99.90
2022-10-05T23:08:57.307Z,99.90
2022-10-05T23:11:27.729Z,99.90
2022-10-05T23:13:57.104Z,99.90
2022-10-05T23:16:27.371Z,99.90
2022-10-05T23:18:55.954Z,99.90
2022-10-05T23:21:26.243Z,99.90
2022-10-05T23:23:54.653Z,99.90
2022-10-05T23:26:25.888Z,99.90
2022-10-05T23:28:54.583Z,99.90
2022-10-05T23:31:25.080Z,99.90
2022-10-05T23:33:54.232Z,99.90
2022-10-05T23:36:24.681Z,99.90
2022-10-05T23:38:52.929Z,99.90
2022-10-05T23:41:21.437Z,99.90
2022-10-05T23:43:51.337Z,99.90
2022-10-05T23:46:19.598Z,99.90
2022-10-05T23:48:50.194Z,99.90
2022-10-05T23:51:18.746Z,99.90
2022-10-05T23:53:47.165Z,99.90
2022-10-05T23:56:17.693Z,99.90
2022-10-05T23:58:45.932Z,99.90
